Time;durP1;ratioP1;P1;durP2;ratioP2;P2;SDS_P1;SDS_P2;PMS_P1;PMS_P2;Temp;Humidity;BMP_temperature;BMP_pressure;BME280_temperature;BME280_humidity;BME280_pressure;Samples;Min_cycle;Max_cycle;Signal;HPM_P1;HPM_P2
2024/02/29 00:00:15;;;;;;;8.15;2.08;;;8.90;99.90;;;;;;5011397;28;20488;-75
2024/02/29 00:02:41;;;;;;;7.43;2.33;;;8.90;99.90;;;;;;5009954;28;20051;-75
2024/02/29 00:05:09;;;;;;;6.45;2.95;;;8.90;99.90;;;;;;5011018;28;20056;-75
2024/02/29 00:07:34;;;;;;;13.52;2.90;;;9.10;99.90;;;;;;5010701;28;20029;-76
2024/02/29 00:10:00;;;;;;;8.43;2.47;;;9.00;99.90;;;;;;5012605;28;20185;-75
2024/02/29 00:12:26;;;;;;;6.82;2.70;;;9.00;99.90;;;;;;5011478;28;20705;-75
2024/02/29 00:14:51;;;;;;;10.07;2.92;;;9.10;99.90;;;;;;5012974;28;20099;-77
2024/02/29 00:17:17;;;;;;;7.13;1.70;;;9.00;99.90;;;;;;5014639;28;20037;-75
2024/02/29 00:19:43;;;;;;;8.50;2.50;;;9.00;99.90;;;;;;5014555;28;20029;-74
2024/02/29 00:22:09;;;;;;;6.18;2.38;;;9.00;99.90;;;;;;5015574;28;20111;-75
2024/02/29 00:24:35;;;;;;;4.30;1.58;;;9.00;99.90;;;;;;5016048;28;21374;-75
2024/02/29 00:27:01;;;;;;;5.82;1.60;;;9.10;99.90;;;;;;5014498;28;20041;-75
2024/02/29 00:29:28;;;;;;;4.43;1.52;;;9.10;99.90;;;;;;5015821;28;20039;-75
2024/02/29 00:32:00;;;;;;;6.57;1.80;;;9.10;99.90;;;;;;5013799;28;20148;-75
2024/02/29 00:34:26;;;;;;;3.33;1.60;;;9.10;99.90;;;;;;5011523;28;20046;-75
2024/02/29 00:36:52;;;;;;;9.40;2.28;;;9.10;99.90;;;;;;5013667;28;20043;-75
2024/02/29 00:39:17;;;;;;;3.92;1.35;;;9.00;99.90;;;;;;5014719;28;20045;-75
2024/02/29 00:41:43;;;;;;;7.93;1.90;;;8.90;99.90;;;;;;5013249;28;20076;-75
2024/02/29 00:44:09;;;;;;;6.35;1.90;;;8.80;99.90;;;;;;5011994;28;20655;-75
2024/02/29 00:46:37;;;;;;;7.38;1.98;;;8.80;99.90;;;;;;5015245;28;20037;-75
2024/02/29 00:49:03;;;;;;;3.88;2.05;;;8.60;99.90;;;;;;5014328;28;20030;-75
2024/02/29 00:51:29;;;;;;;8.80;2.38;;;8.60;99.90;;;;;;5014605;28;20064;-75
2024/02/29 00:53:54;;;;;;;5.35;1.88;;;8.70;99.90;;;;;;5015256;28;20144;-75
2024/02/29 00:56:20;;;;;;;9.30;2.38;;;8.70;99.90;;;;;;5014594;28;20796;-75
2024/02/29 00:58:46;;;;;;;6.63;2.22;;;8.60;99.90;;;;;;5014250;28;20060;-76
2024/02/29 01:01:12;;;;;;;6.75;1.90;;;8.70;99.90;;;;;;5014380;28;20037;-75
2024/02/29 01:03:37;;;;;;;6.75;2.03;;;8.80;99.90;;;;;;5014561;28;20040;-75
2024/02/29 01:06:04;;;;;;;10.55;2.22;;;8.70;99.90;;;;;;5015490;28;20037;-75
2024/02/29 01:08:30;;;;;;;8.27;2.25;;;8.80;99.90;;;;;;5014146;28;20030;-75
2024/02/29 01:10:56;;;;;;;3.90;1.58;;;8.80;99.90;;;;;;5013848;28;20053;-75
2024/02/29 01:13:22;;;;;;;6.85;1.95;;;8.80;99.90;;;;;;5014326;28;20052;-75
2024/02/29 01:15:49;;;;;;;3.85;1.63;;;8.80;99.90;;;;;;5013854;28;20399;-75
2024/02/29 01:18:15;;;;;;;3.97;1.55;;;8.80;99.90;;;;;;5015276;28;20548;-76
2024/02/29 01:20:41;;;;;;;6.65;1.75;;;8.70;99.90;;;;;;5014509;28;20033;-75
2024/02/29 01:23:06;;;;;;;7.10;2.03;;;8.70;99.90;;;;;;5011092;28;20036;-75
2024/02/29 01:25:32;;;;;;;5.22;2.40;;;8.70;99.90;;;;;;5015531;28;20033;-75
2024/02/29 01:27:58;;;;;;;7.13;2.42;;;8.70;99.90;;;;;;5014668;28;20029;-74
2024/02/29 01:30:24;;;;;;;5.85;2.55;;;8.70;99.90;;;;;;5014829;28;20045;-75
2024/02/29 01:32:49;;;;;;;4.07;2.20;;;8.60;99.90;;;;;;5014113;28;20040;-75
2024/02/29 01:35:15;;;;;;;3.28;1.38;;;8.60;99.90;;;;;;5013721;28;20483;-75
2024/02/29 01:37:42;;;;;;;7.03;1.90;;;8.60;99.90;;;;;;5013127;28;20048;-75
2024/02/29 01:40:08;;;;;;;3.88;1.80;;;8.60;99.90;;;;;;5014628;28;21030;-75
2024/02/29 01:42:34;;;;;;;8.60;2.45;;;8.50;99.90;;;;;;5013605;28;20431;-75
2024/02/29 01:45:00;;;;;;;10.38;2.95;;;8.40;99.90;;;;;;5012980;28;20083;-75
2024/02/29 01:47:26;;;;;;;8.75;2.35;;;8.50;99.90;;;;;;5013714;28;20048;-75
2024/02/29 01:50:02;;;;;;;3.92;2.20;;;8.50;99.90;;;;;;5013683;28;20491;-75
2024/02/29 01:52:31;;;;;;;7.18;2.05;;;8.60;99.90;;;;;;5013468;28;20490;-76
2024/02/29 01:54:57;;;;;;;5.22;2.15;;;8.70;99.90;;;;;;5013595;28;20144;-75
2024/02/29 01:57:24;;;;;;;6.20;2.67;;;8.80;99.90;;;;;;5013976;28;20049;-75
2024/02/29 01:59:50;;;;;;;9.15;2.90;;;8.90;99.90;;;;;;5013108;28;20498;-75
2024/02/29 02:02:16;;;;;;;6.88;1.50;;;8.90;99.90;;;;;;5012745;28;20037;-75
2024/02/29 02:04:41;;;;;;;5.43;1.88;;;8.80;99.90;;;;;;5014724;28;20083;-76
2024/02/29 02:07:09;;;;;;;5.10;2.45;;;8.80;99.90;;;;;;5012892;28;20033;-75
2024/02/29 02:09:35;;;;;;;4.78;1.98;;;9.00;99.90;;;;;;5013023;28;20067;-75
2024/02/29 02:12:01;;;;;;;7.65;1.70;;;9.00;99.90;;;;;;5014589;28;21072;-75
2024/02/29 02:14:27;;;;;;;5.57;1.98;;;9.00;99.90;;;;;;5013207;28;20045;-75
2024/02/29 02:16:53;;;;;;;7.97;3.20;;;8.90;99.90;;;;;;5013366;28;20398;-75
2024/02/29 02:19:19;;;;;;;5.55;1.55;;;8.90;99.90;;;;;;5014609;28;20052;-75
2024/02/29 02:21:45;;;;;;;8.80;1.77;;;8.80;99.90;;;;;;5013759;28;20033;-75
2024/02/29 02:24:10;;;;;;;7.88;1.83;;;8.80;99.90;;;;;;5013503;28;20048;-75
2024/02/29 02:26:36;;;;;;;7.57;2.55;;;8.90;99.90;;;;;;5014739;28;20079;-75
2024/02/29 02:29:04;;;;;;;8.15;2.80;;;8.90;99.90;;;;;;5013239;28;20480;-75
2024/02/29 02:31:29;;;;;;;10.02;3.03;;;8.80;99.90;;;;;;5012853;28;20041;-75
2024/02/29 02:33:56;;;;;;;8.32;4.13;;;8.60;99.90;;;;;;5013740;28;20106;-74
2024/02/29 02:36:22;;;;;;;9.30;2.95;;;8.60;99.90;;;;;;5013297;28;20033;-75
2024/02/29 02:38:48;;;;;;;9.95;3.00;;;8.70;99.90;;;;;;5013321;28;20061;-75
2024/02/29 02:41:14;;;;;;;5.90;2.38;;;8.90;99.90;;;;;;5014648;28;20037;-75
2024/02/29 02:43:40;;;;;;;4.57;1.83;;;8.90;99.90;;;;;;5013436;28;20033;-75
2024/02/29 02:46:05;;;;;;;11.45;3.13;;;9.00;99.90;;;;;;5013610;28;20562;-75
2024/02/29 02:48:31;;;;;;;7.22;2.08;;;9.00;99.90;;;;;;5015526;28;20044;-75
2024/02/29 02:50:57;;;;;;;5.40;2.17;;;9.10;99.90;;;;;;5012819;28;20072;-75
2024/02/29 02:53:22;;;;;;;7.72;2.70;;;9.00;99.90;;;;;;5012950;28;20033;-75
2024/02/29 02:55:48;;;;;;;11.68;3.08;;;8.90;99.90;;;;;;5014012;28;20057;-75
2024/02/29 02:58:14;;;;;;;6.88;2.63;;;8.80;99.90;;;;;;5012745;28;20029;-75
2024/02/29 03:00:39;;;;;;;4.93;2.33;;;8.80;99.90;;;;;;5013849;28;20076;-75
2024/02/29 03:03:05;;;;;;;7.38;2.58;;;8.70;99.90;;;;;;5013215;28;20040;-75
2024/02/29 03:05:31;;;;;;;5.50;2.70;;;8.70;99.90;;;;;;5012994;28;20041;-75
2024/02/29 03:07:57;;;;;;;6.70;2.17;;;8.80;99.90;;;;;;5014790;28;21466;-77
2024/02/29 03:10:23;;;;;;;6.35;2.40;;;8.90;99.90;;;;;;5015037;28;20053;-75
2024/02/29 03:12:49;;;;;;;7.15;2.63;;;8.90;99.90;;;;;;5016935;28;20040;-74
2024/02/29 03:15:15;;;;;;;8.10;2.67;;;9.00;99.90;;;;;;5017644;28;20037;-75
2024/02/29 03:17:41;;;;;;;4.85;2.22;;;9.00;99.90;;;;;;5015970;28;20486;-75
2024/02/29 03:20:16;;;;;;;5.95;1.83;;;9.00;99.90;;;;;;5016383;28;20033;-75
2024/02/29 03:22:42;;;;;;;5.13;1.92;;;9.00;99.90;;;;;;5016807;28;20041;-75
2024/02/29 03:25:09;;;;;;;3.10;1.50;;;9.00;99.90;;;;;;5018131;28;20048;-75
2024/02/29 03:27:35;;;;;;;3.33;1.50;;;9.00;99.90;;;;;;5015016;28;20046;-75
2024/02/29 03:30:02;;;;;;;8.90;1.95;;;8.90;99.90;;;;;;5018156;28;21677;-75
2024/02/29 03:32:28;;;;;;;10.57;2.45;;;8.90;99.90;;;;;;5016031;28;20067;-75
2024/02/29 03:34:53;;;;;;;7.18;2.53;;;8.90;99.90;;;;;;5016096;28;20136;-74
2024/02/29 03:37:19;;;;;;;7.45;2.47;;;8.90;99.90;;;;;;5016473;28;20018;-75
2024/02/29 03:39:45;;;;;;;7.53;2.67;;;9.00;99.90;;;;;;5014187;28;20140;-75
2024/02/29 03:42:11;;;;;;;10.48;2.47;;;9.00;99.90;;;;;;5016784;28;20087;-75
2024/02/29 03:44:37;;;;;;;7.80;3.03;;;9.00;99.90;;;;;;5017088;28;20123;-75
2024/02/29 03:47:04;;;;;;;7.72;4.03;;;9.00;99.90;;;;;;5016016;28;20040;-75
2024/02/29 03:49:30;;;;;;;9.40;2.05;;;9.00;99.90;;;;;;5014887;28;20088;-75
2024/02/29 03:51:56;;;;;;;8.20;2.47;;;9.00;99.90;;;;;;5016400;28;20037;-75
2024/02/29 03:54:21;;;;;;;8.57;2.25;;;8.90;99.90;;;;;;5015750;28;20037;-76
2024/02/29 03:56:47;;;;;;;8.73;1.85;;;8.80;99.90;;;;;;5015652;28;20498;-75
2024/02/29 03:59:13;;;;;;;9.82;1.90;;;8.80;99.90;;;;;;5015862;28;20059;-75
2024/02/29 04:01:38;;;;;;;4.15;1.60;;;8.70;99.90;;;;;;5014150;28;20048;-75
2024/02/29 04:04:05;;;;;;;6.40;1.73;;;8.70;99.90;;;;;;5009588;28;20061;-75
2024/02/29 04:06:31;;;;;;;6.45;1.70;;;8.70;99.90;;;;;;5011602;28;20038;-75
2024/02/29 04:08:56;;;;;;;5.22;1.98;;;8.70;99.90;;;;;;5011205;28;20037;-75
2024/02/29 04:11:22;;;;;;;5.22;1.67;;;8.70;99.90;;;;;;5009008;28;20466;-77
2024/02/29 04:13:48;;;;;;;7.78;1.90;;;8.70;99.90;;;;;;5007841;28;20041;-77
2024/02/29 04:16:14;;;;;;;9.13;1.73;;;8.70;99.90;;;;;;5009956;28;20084;-76
2024/02/29 04:18:40;;;;;;;8.55;1.92;;;8.70;99.90;;;;;;5005520;28;20395;-77
2024/02/29 04:21:05;;;;;;;3.58;1.45;;;8.70;99.90;;;;;;5008861;28;20091;-77
2024/02/29 04:23:31;;;;;;;3.97;1.50;;;8.70;99.90;;;;;;5007076;28;20034;-77
2024/02/29 04:25:57;;;;;;;6.47;1.55;;;8.60;99.90;;;;;;5010937;28;21300;-77
2024/02/29 04:28:22;;;;;;;6.47;1.98;;;8.70;99.90;;;;;;5012053;28;20045;-77
2024/02/29 04:30:48;;;;;;;10.00;2.05;;;8.70;99.90;;;;;;5007509;28;20037;-76
2024/02/29 04:33:14;;;;;;;4.25;1.20;;;8.70;99.90;;;;;;5008272;28;20519;-76
2024/02/29 04:35:40;;;;;;;11.63;2.85;;;8.60;99.90;;;;;;5011064;28;20389;-77
2024/02/29 04:38:05;;;;;;;5.03;2.40;;;8.60;99.90;;;;;;5012129;28;20773;-77
2024/02/29 04:40:31;;;;;;;5.95;2.40;;;8.60;99.90;;;;;;5010803;28;20102;-76
2024/02/29 04:42:57;;;;;;;11.68;2.70;;;8.50;99.90;;;;;;5009273;28;20056;-77
2024/02/29 04:45:26;;;;;;;5.22;2.13;;;8.50;99.90;;;;;;5012761;28;20025;-77
2024/02/29 04:47:56;;;;;;;6.05;2.53;;;8.60;99.90;;;;;;5011682;28;20041;-77
2024/02/29 04:50:22;;;;;;;6.03;2.90;;;8.50;99.90;;;;;;5010792;28;20025;-76
2024/02/29 04:52:47;;;;;;;12.95;2.88;;;8.40;99.90;;;;;;5010070;28;20411;-76
2024/02/29 04:55:13;;;;;;;7.90;2.53;;;8.40;99.90;;;;;;5011078;28;20052;-77
2024/02/29 04:57:39;;;;;;;9.93;2.35;;;8.40;99.90;;;;;;5009396;28;20029;-74
2024/02/29 05:00:06;;;;;;;10.02;2.33;;;8.50;99.90;;;;;;5008144;28;20487;-74
2024/02/29 05:02:33;;;;;;;6.75;2.88;;;8.50;99.90;;;;;;5008403;28;20601;-74
2024/02/29 05:04:59;;;;;;;7.88;2.40;;;8.60;99.90;;;;;;5008677;28;20025;-77
2024/02/29 05:07:25;;;;;;;6.07;2.15;;;8.60;99.90;;;;;;4991350;28;20055;-77
2024/02/29 05:09:50;;;;;;;3.88;2.13;;;8.60;99.90;;;;;;5008843;28;20057;-76
2024/02/29 05:12:16;;;;;;;9.15;2.35;;;8.60;99.90;;;;;;5005683;28;20030;-76
2024/02/29 05:14:42;;;;;;;9.43;2.83;;;8.60;99.90;;;;;;5006643;28;20168;-76
2024/02/29 05:17:07;;;;;;;5.97;1.90;;;8.60;99.90;;;;;;5007861;28;20049;-77
2024/02/29 05:19:34;;;;;;;4.35;1.90;;;8.50;99.90;;;;;;5006848;28;20622;-77
2024/02/29 05:22:00;;;;;;;7.43;1.80;;;8.50;99.90;;;;;;5006817;28;20044;-77
2024/02/29 05:24:26;;;;;;;6.47;1.95;;;8.50;99.90;;;;;;5008071;28;20030;-74
2024/02/29 05:26:51;;;;;;;7.45;2.38;;;8.50;99.90;;;;;;5005787;28;20038;-75
2024/02/29 05:29:17;;;;;;;8.65;1.85;;;8.50;99.90;;;;;;5008002;28;20033;-74
2024/02/29 05:31:52;;;;;;;6.22;2.08;;;8.60;99.90;;;;;;5006790;28;20779;-77
2024/02/29 05:34:18;;;;;;;11.02;2.13;;;8.60;99.90;;;;;;5004647;28;20474;-77
2024/02/29 05:36:43;;;;;;;6.70;1.80;;;8.60;99.90;;;;;;5003432;28;20045;-77
2024/02/29 05:39:11;;;;;;;12.93;2.42;;;8.50;99.90;;;;;;5002558;28;21046;-77
2024/02/29 05:41:36;;;;;;;8.82;2.70;;;8.60;99.90;;;;;;5007226;28;20029;-74
2024/02/29 05:44:02;;;;;;;10.75;2.30;;;8.80;99.90;;;;;;5006723;28;20655;-74
2024/02/29 05:46:28;;;;;;;10.95;3.03;;;8.80;99.90;;;;;;5007961;28;20402;-77
2024/02/29 05:48:53;;;;;;;3.80;1.90;;;8.90;99.90;;;;;;5005968;28;20045;-77
2024/02/29 05:51:19;;;;;;;6.55;2.88;;;8.90;99.90;;;;;;5004097;28;20036;-77
2024/02/29 05:53:45;;;;;;;4.65;2.03;;;8.90;99.90;;;;;;5006806;28;20040;-76
2024/02/29 05:56:10;;;;;;;7.90;2.35;;;8.90;99.90;;;;;;5006176;28;20044;-74
2024/02/29 05:58:36;;;;;;;9.52;2.25;;;8.70;99.90;;;;;;5005298;28;20094;-74
2024/02/29 06:01:02;;;;;;;5.03;2.70;;;8.60;99.90;;;;;;5006448;28;20087;-75
2024/02/29 06:03:27;;;;;;;5.32;2.20;;;8.50;99.90;;;;;;5006106;28;20095;-74
2024/02/29 06:05:53;;;;;;;15.38;2.55;;;8.60;99.90;;;;;;5007086;28;20079;-74
2024/02/29 06:08:19;;;;;;;14.27;3.30;;;8.50;99.90;;;;;;5005170;28;20040;-74
2024/02/29 06:10:47;;;;;;;10.50;2.20;;;8.40;99.90;;;;;;5006871;28;20122;-77
2024/02/29 06:13:14;;;;;;;12.52;2.70;;;8.30;99.90;;;;;;5007090;28;20033;-77
2024/02/29 06:15:39;;;;;;;14.88;3.17;;;8.30;99.90;;;;;;5007895;28;20126;-77
2024/02/29 06:18:05;;;;;;;9.55;2.53;;;8.40;99.90;;;;;;5005012;28;20044;-77
2024/02/29 06:20:31;;;;;;;10.23;2.90;;;8.40;99.90;;;;;;5012522;28;20021;-76
2024/02/29 06:22:58;;;;;;;9.20;3.05;;;8.50;99.90;;;;;;5007475;28;20071;-76
2024/02/29 06:25:24;;;;;;;7.57;2.22;;;8.60;99.90;;;;;;5004289;28;20079;-76
2024/02/29 06:27:50;;;;;;;6.53;2.08;;;9.00;99.90;;;;;;5005830;28;20392;-76
2024/02/29 06:30:16;;;;;;;8.32;2.45;;;8.90;99.90;;;;;;5005697;28;20044;-76
2024/02/29 06:32:43;;;;;;;6.70;1.80;;;8.80;99.90;;;;;;5004722;28;20041;-76
2024/02/29 06:35:10;;;;;;;7.60;2.47;;;8.80;99.90;;;;;;5008706;28;20105;-76
2024/02/29 06:37:38;;;;;;;7.72;2.75;;;8.90;99.90;;;;;;5011708;28;20116;-74
2024/02/29 06:40:09;;;;;;;6.88;2.78;;;8.90;99.90;;;;;;5003869;28;20041;-75
2024/02/29 06:42:35;;;;;;;6.32;2.22;;;8.90;99.90;;;;;;5007045;28;20553;-75
2024/02/29 06:45:03;;;;;;;7.63;2.40;;;8.80;99.90;;;;;;5010585;28;20065;-74
2024/02/29 06:47:29;;;;;;;5.93;3.00;;;8.60;99.90;;;;;;5009031;28;20048;-74
2024/02/29 06:49:54;;;;;;;8.65;3.42;;;8.50;99.90;;;;;;5010857;28;20151;-74
2024/02/29 06:52:20;;;;;;;10.23;2.58;;;8.40;99.90;;;;;;5009913;28;20033;-74
2024/02/29 06:54:46;;;;;;;7.07;2.42;;;8.50;99.90;;;;;;5010166;28;20144;-74
2024/02/29 06:57:12;;;;;;;12.85;3.05;;;8.60;99.90;;;;;;5009636;28;20716;-74
2024/02/29 06:59:38;;;;;;;11.23;2.83;;;8.60;99.90;;;;;;5010751;28;20079;-74
2024/02/29 07:02:04;;;;;;;11.95;2.63;;;8.60;99.90;;;;;;5010731;28;20734;-74
2024/02/29 07:04:30;;;;;;;9.75;3.10;;;8.70;99.90;;;;;;5011423;28;20100;-74
2024/02/29 07:06:56;;;;;;;6.30;2.85;;;8.70;99.90;;;;;;5008360;28;20102;-74
2024/02/29 07:09:21;;;;;;;7.88;3.28;;;8.80;99.90;;;;;;5009664;28;20087;-74
2024/02/29 07:11:47;;;;;;;7.78;2.40;;;8.90;99.90;;;;;;5011530;28;20049;-75
2024/02/29 07:14:13;;;;;;;11.52;2.45;;;8.90;99.90;;;;;;5010188;28;20618;-74
2024/02/29 07:16:38;;;;;;;6.32;2.42;;;9.00;99.90;;;;;;5007758;28;20037;-74
2024/02/29 07:19:04;;;;;;;5.95;2.78;;;8.90;99.90;;;;;;5010025;28;20045;-75
2024/02/29 07:21:31;;;;;;;9.18;2.55;;;9.00;99.90;;;;;;5009127;28;20026;-76
2024/02/29 07:23:57;;;;;;;9.93;2.28;;;9.00;99.90;;;;;;5009694;28;20029;-77
2024/02/29 07:26:23;;;;;;;7.25;2.60;;;9.10;99.90;;;;;;5009726;28;20044;-77
2024/02/29 07:28:48;;;;;;;5.30;1.77;;;9.20;99.90;;;;;;5008533;28;20070;-77
2024/02/29 07:31:14;;;;;;;9.55;2.47;;;9.20;99.90;;;;;;5008893;28;20055;-76
2024/02/29 07:33:40;;;;;;;9.00;1.92;;;9.20;99.90;;;;;;5011320;28;20076;-77
2024/02/29 07:36:06;;;;;;;8.75;2.90;;;9.20;99.90;;;;;;5008463;28;20485;-76
2024/02/29 07:38:31;;;;;;;13.25;3.22;;;9.30;99.90;;;;;;5007789;28;20476;-77
2024/02/29 07:40:57;;;;;;;9.75;2.40;;;9.50;99.90;;;;;;5009194;28;20568;-76
2024/02/29 07:43:23;;;;;;;5.57;2.20;;;9.50;99.90;;;;;;5010238;28;20461;-76
2024/02/29 07:45:48;;;;;;;10.30;3.08;;;9.60;99.90;;;;;;5009036;28;20493;-76
2024/02/29 07:48:14;;;;;;;4.75;2.00;;;9.60;99.90;;;;;;5007534;28;20041;-76
2024/02/29 07:50:40;;;;;;;6.90;2.53;;;9.70;99.90;;;;;;5009498;28;20038;-76
2024/02/29 07:53:05;;;;;;;9.10;3.53;;;9.80;99.90;;;;;;5009718;28;20598;-76
2024/02/29 07:55:31;;;;;;;7.90;2.42;;;9.70;99.90;;;;;;5009453;28;20049;-76
2024/02/29 07:57:57;;;;;;;8.23;2.72;;;9.60;99.90;;;;;;5008264;28;20033;-76
2024/02/29 08:00:24;;;;;;;7.15;2.67;;;9.70;99.90;;;;;;5010118;28;20030;-76
2024/02/29 08:02:51;;;;;;;6.22;2.03;;;9.70;99.90;;;;;;5009861;28;20044;-76
2024/02/29 08:05:17;;;;;;;5.35;2.03;;;9.70;99.90;;;;;;5008929;28;20026;-76
2024/02/29 08:07:46;;;;;;;9.85;3.17;;;9.60;99.90;;;;;;5008226;28;20037;-76
2024/02/29 08:10:15;;;;;;;9.27;2.60;;;9.70;99.90;;;;;;5009642;28;20922;-77
2024/02/29 08:12:42;;;;;;;5.88;2.22;;;9.70;99.90;;;;;;5006609;28;20636;-77
2024/02/29 08:15:08;;;;;;;7.03;2.63;;;9.70;99.90;;;;;;5007232;28;20080;-77
2024/02/29 08:17:34;;;;;;;5.53;2.30;;;9.80;99.90;;;;;;5007232;28;20694;-77
2024/02/29 08:20:00;;;;;;;6.68;2.83;;;9.80;99.90;;;;;;5007214;28;20037;-77
2024/02/29 08:22:25;;;;;;;10.05;2.60;;;9.80;99.90;;;;;;5008083;28;20442;-77
2024/02/29 08:24:51;;;;;;;6.05;2.50;;;9.80;99.90;;;;;;5010045;28;20041;-77
2024/02/29 08:27:16;;;;;;;5.85;2.10;;;9.80;99.90;;;;;;5007887;28;20025;-77
2024/02/29 08:29:42;;;;;;;4.75;2.33;;;9.90;99.90;;;;;;5008003;28;20099;-76
2024/02/29 08:32:08;;;;;;;7.05;2.58;;;10.00;99.90;;;;;;5009764;28;21421;-75
2024/02/29 08:34:33;;;;;;;10.18;2.78;;;10.10;99.90;;;;;;5008007;28;20052;-76
2024/02/29 08:36:59;;;;;;;6.57;2.50;;;10.10;99.90;;;;;;5008013;28;20472;-75
2024/02/29 08:39:25;;;;;;;6.07;2.72;;;10.60;99.90;;;;;;5002631;28;20487;-75
2024/02/29 08:41:51;;;;;;;6.55;2.30;;;10.30;99.90;;;;;;5009282;28;20604;-76
2024/02/29 08:44:17;;;;;;;9.85;2.92;;;10.20;99.90;;;;;;5008820;28;20033;-75
2024/02/29 08:46:43;;;;;;;7.28;1.85;;;10.20;99.90;;;;;;5006464;28;20116;-75
2024/02/29 08:49:09;;;;;;;5.63;1.92;;;10.20;99.90;;;;;;5009350;28;20033;-75
2024/02/29 08:51:35;;;;;;;6.72;2.35;;;10.20;99.90;;;;;;5009048;28;20029;-76
2024/02/29 08:54:03;;;;;;;9.73;3.13;;;10.20;99.90;;;;;;5007454;28;20491;-76
2024/02/29 08:56:29;;;;;;;7.93;2.30;;;10.30;99.90;;;;;;5009435;28;20033;-76
2024/02/29 08:58:55;;;;;;;10.95;2.20;;;10.30;99.90;;;;;;5005278;28;20606;-76
2024/02/29 09:01:21;;;;;;;11.20;2.40;;;10.30;99.90;;;;;;5004963;28;20033;-75
2024/02/29 09:03:47;;;;;;;6.93;2.00;;;10.40;99.90;;;;;;5004908;28;20037;-75
2024/02/29 09:06:16;;;;;;;6.05;2.28;;;10.50;99.90;;;;;;5006520;28;20195;-76
2024/02/29 09:08:41;;;;;;;5.45;2.03;;;10.50;99.90;;;;;;5005742;28;20134;-76
2024/02/29 09:11:08;;;;;;;5.97;2.00;;;10.50;99.90;;;;;;5007629;28;20680;-76
2024/02/29 09:13:33;;;;;;;9.15;2.33;;;10.50;99.90;;;;;;5006667;28;20029;-76
2024/02/29 09:15:59;;;;;;;5.15;2.00;;;10.60;99.90;;;;;;5006795;28;20053;-75
2024/02/29 09:18:25;;;;;;;6.00;2.50;;;10.90;99.90;;;;;;5007429;28;20045;-76
2024/02/29 09:20:51;;;;;;;7.63;2.47;;;10.80;99.90;;;;;;5007021;28;20123;-76
2024/02/29 09:23:17;;;;;;;4.80;2.22;;;10.70;99.90;;;;;;5007230;28;20464;-76
2024/02/29 09:25:43;;;;;;;7.72;2.25;;;10.70;99.90;;;;;;5008357;28;20107;-76
2024/02/29 09:28:08;;;;;;;7.20;2.60;;;10.60;99.90;;;;;;5006536;28;20517;-76
2024/02/29 09:30:34;;;;;;;5.40;2.50;;;10.50;99.90;;;;;;5006568;28;20056;-76
2024/02/29 09:33:00;;;;;;;6.55;2.65;;;10.50;99.90;;;;;;5007115;28;20037;-75
2024/02/29 09:35:25;;;;;;;8.30;2.80;;;10.40;99.90;;;;;;5006068;28;20080;-76
2024/02/29 09:37:51;;;;;;;7.72;3.08;;;10.40;99.90;;;;;;5006815;28;20037;-76
2024/02/29 09:40:20;;;;;;;7.45;2.88;;;10.50;99.90;;;;;;5007586;28;20041;-76
2024/02/29 09:42:46;;;;;;;11.63;3.75;;;10.60;99.90;;;;;;5006855;28;20809;-76
2024/02/29 09:45:14;;;;;;;10.00;3.20;;;10.60;99.90;;;;;;5005515;28;20029;-75
2024/02/29 09:47:40;;;;;;;6.30;2.65;;;10.70;99.90;;;;;;5007381;28;21297;-75
2024/02/29 09:50:10;;;;;;;7.78;2.22;;;10.70;99.90;;;;;;5005809;28;20029;-75
2024/02/29 09:52:40;;;;;;;10.68;4.32;;;10.80;99.90;;;;;;5006818;28;20385;-76
2024/02/29 09:55:18;;;;;;;7.43;2.67;;;10.80;99.90;;;;;;5002571;28;20041;-76
2024/02/29 09:57:44;;;;;;;8.68;2.65;;;10.90;99.90;;;;;;5007254;28;20029;-76
2024/02/29 10:00:11;;;;;;;8.60;2.50;;;10.90;99.90;;;;;;5004622;28;20037;-76
2024/02/29 10:02:42;;;;;;;5.03;2.60;;;11.10;99.90;;;;;;5005873;28;20068;-76
2024/02/29 10:05:12;;;;;;;10.15;2.60;;;11.10;99.90;;;;;;5006229;28;20610;-76
2024/02/29 10:07:45;;;;;;;6.55;2.90;;;11.30;99.90;;;;;;5007034;28;20045;-76
2024/02/29 10:10:16;;;;;;;9.30;2.53;;;11.40;99.90;;;;;;5005079;28;20057;-76
2024/02/29 10:12:43;;;;;;;10.77;3.83;;;11.40;99.90;;;;;;5006220;28;20044;-76
2024/02/29 10:15:12;;;;;;;9.90;2.75;;;11.30;99.90;;;;;;5006874;28;20400;-76
2024/02/29 10:17:39;;;;;;;10.43;3.00;;;11.60;99.90;;;;;;5007601;28;20029;-76
2024/02/29 10:20:10;;;;;;;9.35;3.28;;;11.60;99.90;;;;;;5007372;28;20199;-76
2024/02/29 10:22:40;;;;;;;11.63;3.03;;;11.70;99.90;;;;;;5010448;28;20068;-76
2024/02/29 10:25:13;;;;;;;6.55;2.20;;;11.90;99.90;;;;;;5013743;28;20037;-76
2024/02/29 10:27:40;;;;;;;8.10;2.58;;;11.80;99.90;;;;;;5014030;28;20067;-76
2024/02/29 10:30:13;;;;;;;6.78;2.53;;;11.80;99.90;;;;;;5011601;28;20571;-76
2024/02/29 10:32:43;;;;;;;7.20;2.38;;;11.80;99.90;;;;;;5014041;28;20496;-76
2024/02/29 10:35:19;;;;;;;5.45;2.97;;;12.00;99.90;;;;;;5013552;28;20038;-76
2024/02/29 10:37:53;;;;;;;8.48;4.35;;;12.00;99.90;;;;;;5013417;28;20080;-76
2024/02/29 10:40:19;;;;;;;8.73;3.58;;;11.90;99.90;;;;;;5010060;28;20041;-76
2024/02/29 10:42:50;;;;;;;8.65;3.30;;;11.90;99.90;;;;;;5012266;28;20038;-76
2024/02/29 10:45:16;;;;;;;12.52;3.17;;;12.10;99.90;;;;;;5013821;28;20098;-76
2024/02/29 10:48:00;;;;;;;11.80;6.13;;;12.30;99.90;;;;;;5012149;28;20119;-76
2024/02/29 10:50:26;;;;;;;11.05;4.35;;;12.10;99.90;;;;;;5010100;28;20152;-77
2024/02/29 10:53:21;;;;;;;7.13;3.15;;;12.30;99.90;;;;;;5012641;28;20124;-76
2024/02/29 10:56:02;;;;;;;10.30;3.65;;;12.40;99.90;;;;;;5012481;28;20080;-76
2024/02/29 10:58:36;;;;;;;6.22;2.63;;;12.20;99.90;;;;;;5009957;28;20036;-76
2024/02/29 11:01:03;;;;;;;9.05;2.83;;;12.20;99.90;;;;;;5011106;28;20096;-76
2024/02/29 11:03:31;;;;;;;6.90;2.80;;;12.40;99.90;;;;;;5012068;28;20674;-76
2024/02/29 11:05:57;;;;;;;5.15;2.55;;;12.60;99.90;;;;;;5012630;28;20499;-76
2024/02/29 11:08:23;;;;;;;7.78;2.58;;;12.60;99.90;;;;;;5013865;28;20037;-76
2024/02/29 11:10:49;;;;;;;10.90;2.83;;;12.70;99.90;;;;;;5011445;28;20107;-76
2024/02/29 11:13:19;;;;;;;15.77;2.83;;;12.60;99.90;;;;;;5011667;28;20547;-76
2024/02/29 11:15:45;;;;;;;9.88;3.63;;;12.60;99.90;;;;;;5012260;28;20048;-76
2024/02/29 11:18:24;;;;;;;9.45;3.17;;;12.60;99.90;;;;;;5013389;28;20029;-76
2024/02/29 11:21:05;;;;;;;9.05;2.65;;;12.70;99.90;;;;;;5010883;28;20052;-76
2024/02/29 11:23:40;;;;;;;6.72;2.60;;;12.70;99.90;;;;;;5011488;28;20567;-76
2024/02/29 11:26:08;;;;;;;8.23;2.63;;;12.70;99.90;;;;;;5011524;28;20037;-76
2024/02/29 11:28:38;;;;;;;8.38;2.72;;;12.80;99.90;;;;;;5011968;28;20095;-76
2024/02/29 11:31:16;;;;;;;6.63;2.65;;;12.80;99.90;;;;;;5007957;28;20048;-75
2024/02/29 11:33:43;;;;;;;5.40;2.92;;;12.80;99.90;;;;;;5009840;28;20479;-76
2024/02/29 11:36:12;;;;;;;16.20;3.15;;;12.70;99.90;;;;;;5008619;28;20045;-76
2024/02/29 11:38:39;;;;;;;11.68;3.13;;;12.80;99.90;;;;;;5008509;28;20052;-75
2024/02/29 11:41:14;;;;;;;10.27;2.47;;;12.80;99.90;;;;;;5009068;28;20771;-76
2024/02/29 11:43:40;;;;;;;6.10;2.65;;;12.90;99.90;;;;;;5009819;28;20040;-76
2024/02/29 11:46:09;;;;;;;12.88;2.80;;;13.00;99.90;;;;;;5008521;28;20037;-76
2024/02/29 11:48:35;;;;;;;10.93;2.67;;;13.00;99.90;;;;;;5008950;28;20033;-76
2024/02/29 11:51:00;;;;;;;6.15;2.60;;;13.10;99.90;;;;;;5009097;28;20049;-76
2024/02/29 11:53:28;;;;;;;11.57;3.83;;;13.10;99.90;;;;;;5004485;28;20354;-76
2024/02/29 11:55:54;;;;;;;12.45;2.97;;;13.10;99.90;;;;;;5008203;28;20095;-76
2024/02/29 11:58:20;;;;;;;7.95;2.20;;;13.20;99.90;;;;;;5009789;28;20037;-76
2024/02/29 12:00:46;;;;;;;6.68;2.50;;;13.10;99.90;;;;;;5005966;28;20711;-76
2024/02/29 12:03:12;;;;;;;12.88;2.72;;;13.00;99.90;;;;;;5008525;28;20045;-76
2024/02/29 12:05:38;;;;;;;10.15;3.70;;;12.90;99.90;;;;;;5009654;28;20034;-76
2024/02/29 12:08:04;;;;;;;9.20;2.78;;;13.00;99.90;;;;;;5008257;28;20916;-76
2024/02/29 12:10:30;;;;;;;6.45;2.25;;;13.10;99.90;;;;;;5008313;28;21103;-76
2024/02/29 12:12:56;;;;;;;8.40;2.90;;;13.00;99.90;;;;;;5009949;28;20110;-76
2024/02/29 12:15:22;;;;;;;7.35;2.42;;;13.00;99.90;;;;;;5011312;28;20037;-75
2024/02/29 12:17:48;;;;;;;8.25;3.25;;;13.10;99.90;;;;;;5010149;28;20045;-76
2024/02/29 12:20:17;;;;;;;9.98;2.60;;;13.00;99.90;;;;;;5008912;28;20160;-76
2024/02/29 12:22:45;;;;;;;7.82;2.97;;;13.00;99.90;;;;;;5009291;28;20037;-76
2024/02/29 12:25:14;;;;;;;7.35;2.60;;;13.00;99.90;;;;;;5012042;28;20037;-76
2024/02/29 12:27:43;;;;;;;8.60;2.80;;;12.90;99.90;;;;;;5009262;28;20053;-76
2024/02/29 12:30:11;;;;;;;13.98;3.00;;;13.00;99.90;;;;;;5009349;28;20041;-76
2024/02/29 12:32:37;;;;;;;10.43;2.58;;;13.00;99.90;;;;;;5012165;28;20037;-76
2024/02/29 12:35:04;;;;;;;7.75;2.28;;;13.10;99.90;;;;;;5011080;28;20084;-74
2024/02/29 12:37:30;;;;;;;9.23;2.50;;;13.20;99.90;;;;;;5010740;28;20037;-75
2024/02/29 12:39:56;;;;;;;10.75;2.80;;;13.40;99.90;;;;;;5010369;28;20118;-76
2024/02/29 12:42:22;;;;;;;7.93;3.15;;;13.40;99.90;;;;;;5006514;28;20747;-76
2024/02/29 12:44:51;;;;;;;8.38;2.22;;;13.30;99.90;;;;;;5007114;28;20049;-76
2024/02/29 12:47:16;;;;;;;7.40;2.63;;;13.30;99.90;;;;;;5009273;28;20041;-75
2024/02/29 12:49:43;;;;;;;6.35;2.42;;;13.20;99.90;;;;;;5005588;28;20399;-75